Aérodrome :
LOGIN :

S'inscrire | Disclaimer

   EN    FR    IT 

 










Légende :    VFR   VFR Marginal   IFR   IFR Intensif   IFR Très Intensif
Visi : 
Plafond : 
>= 8 km
>= 3000ft
5 à 8 km
1000 à 3000 ft
1500m à 5 km
500 à 1000 ft
800 à 1500m
200 à 500 ft
< 800m
< 200 ft
Symboles :   Orages  Brouillard  Fortes neiges  Fortes précipitations  Vent > 20 kt
SIGMETs :   Divers  Orages  Givrage  Turbulence  Onde Orograph.  Cendres Volcan.






- Altitude de l'aérodrome : 12 ft
- Code IATA : NCE


LFMN - Nice

DERNIER METAR :
  • 102100Z 34004KT CAVOK 28/18 Q1015 NOSIG

METARs EXPIRÉS :
  • 102030Z 24004KT CAVOK 27/22 Q1015 NOSIG
  • 102000Z 23003KT CAVOK 27/21 Q1015 NOSIG
  • 101930Z 00000KT CAVOK 27/22 Q1014 NOSIG
  • 101900Z 19003KT CAVOK 27/22 Q1014 NOSIG
  • 101830Z 20005KT CAVOK 27/22 Q1014 NOSIG

TAF TAF LFMN
Valide du 10 à 21h jusqu'au 12 à 03h UTC


102000Z 1021/1203 VRB05KT CAVOK
TEMPO 1022/1106 34010KT
BECMG 1108/1110 16010KT
BECMG 1117/1119 VRB05KT
TEMPO 1202/1203 09010KT
ATIS : +33 4 93 17 21 16



MET'MAP, la Météo Aéronautique d'un coup d'oeil ! - Copyright ORBIFLY Décembre 2007 - Disclaimer

ORBIFLY MET'MAP TEAM :

Programmation & Développement : Alexandra Zaïnal
Sur une idée originale de : Baudouin d'Aumeries
Assistance à la programmation : Marc-Olivier Méhu
Soutien technique & logistique : Manuel Goepfert

Contact : metmap@orbifly.com




SOURCES & CREDITS :

   NOAA